Time;durP1;ratioP1;P1;durP2;ratioP2;P2;SDS_P1;SDS_P2;PMS_P1;PMS_P2;Temp;Humidity;BMP_temperature;BMP_pressure;BME280_temperature;BME280_humidity;BME280_pressure;Samples;Min_cycle;Max_cycle;Signal;HPM_P1;HPM_P2
2022/03/24 00:01:31;;;;;;;22.70;15.48;;;;;;;;;;5033636;28;20087;-68
2022/03/24 00:04:16;;;;;;;25.63;15.68;;;;;;;;;;5035409;28;20025;-60
2022/03/24 00:07:01;;;;;;;22.23;14.82;;;;;;;;;;5028571;28;20489;-61
2022/03/24 00:09:47;;;;;;;21.73;14.48;;;;;;;;;;5037864;28;20449;-62
2022/03/24 00:12:32;;;;;;;22.77;14.13;;;;;;;;;;5027230;28;20160;-63
2022/03/24 00:15:17;;;;;;;22.73;13.75;;;;;;;;;;5033639;28;20056;-61
2022/03/24 00:18:03;;;;;;;21.67;14.98;;;;;;;;;;5035168;28;20039;-60
2022/03/24 00:20:48;;;;;;;21.52;15.10;;;;;;;;;;5020455;28;20121;-53
2022/03/24 00:23:34;;;;;;;23.27;15.32;;;;;;;;;;5036241;28;20136;-68
2022/03/24 00:26:28;;;;;;;21.58;15.27;;;;;;;;;;5109030;27;20439;-66
2022/03/24 00:29:13;;;;;;;23.85;14.85;;;;;;;;;;5094267;28;20038;-64
2022/03/24 00:31:59;;;;;;;23.45;15.23;;;;;;;;;;5094135;28;20035;-65
2022/03/24 00:34:45;;;;;;;22.35;15.38;;;;;;;;;;5093085;28;20267;-68
2022/03/24 00:37:31;;;;;;;29.20;15.90;;;;;;;;;;5098401;28;20062;-66
2022/03/24 00:40:17;;;;;;;23.67;15.68;;;;;;;;;;5092101;28;20117;-59
2022/03/24 00:43:02;;;;;;;24.00;15.90;;;;;;;;;;5092361;28;20051;-62
2022/03/24 00:45:47;;;;;;;22.70;15.65;;;;;;;;;;5086815;28;20584;-63
2022/03/24 00:48:33;;;;;;;20.45;14.02;;;;;;;;;;5101667;28;20036;-61
2022/03/24 00:51:18;;;;;;;26.00;16.65;;;;;;;;;;5096643;28;20082;-61
2022/03/24 00:54:03;;;;;;;27.90;15.95;;;;;;;;;;5090574;28;20059;-59
2022/03/24 00:56:49;;;;;;;24.73;16.77;;;;;;;;;;5104579;28;20044;-59
2022/03/24 00:59:35;;;;;;;25.80;16.38;;;;;;;;;;5090520;28;20063;-57
2022/03/24 01:02:20;;;;;;;26.52;16.17;;;;;;;;;;5093494;28;20429;-58
2022/03/24 01:05:06;;;;;;;25.58;16.13;;;;;;;;;;5088917;28;20028;-59
2022/03/24 01:07:52;;;;;;;21.35;15.30;;;;;;;;;;5090005;28;20020;-58
2022/03/24 01:10:37;;;;;;;24.25;15.77;;;;;;;;;;5092436;28;20043;-58
2022/03/24 01:13:22;;;;;;;27.70;16.58;;;;;;;;;;5088834;28;20059;-57
2022/03/24 01:16:08;;;;;;;24.73;15.63;;;;;;;;;;5092591;28;20368;-53
2022/03/24 01:18:53;;;;;;;22.95;15.57;;;;;;;;;;5096482;28;20032;-65
2022/03/24 01:21:38;;;;;;;25.15;15.23;;;;;;;;;;5091957;28;20032;-66
2022/03/24 01:24:24;;;;;;;27.60;16.13;;;;;;;;;;5086306;28;20494;-63
2022/03/24 01:27:10;;;;;;;20.58;14.93;;;;;;;;;;5094837;28;20088;-65
2022/03/24 01:29:56;;;;;;;25.45;16.17;;;;;;;;;;5099789;28;20040;-64
2022/03/24 01:32:41;;;;;;;23.23;15.50;;;;;;;;;;5096282;28;20145;-65
2022/03/24 01:35:27;;;;;;;22.35;15.13;;;;;;;;;;5085778;28;20024;-59
2022/03/24 01:38:12;;;;;;;24.05;16.88;;;;;;;;;;5077678;28;20028;-61
2022/03/24 01:40:58;;;;;;;25.75;16.65;;;;;;;;;;5086870;28;20187;-60
2022/03/24 01:43:43;;;;;;;26.10;17.73;;;;;;;;;;5077919;28;20029;-59
2022/03/24 01:46:29;;;;;;;25.65;17.15;;;;;;;;;;5075804;28;20072;-60
2022/03/24 01:49:14;;;;;;;24.73;17.52;;;;;;;;;;5074851;28;20559;-62
2022/03/24 01:51:59;;;;;;;25.25;17.77;;;;;;;;;;5077768;28;20028;-62
2022/03/24 01:54:47;;;;;;;28.65;17.13;;;;;;;;;;5077694;28;20064;-69
2022/03/24 01:57:34;;;;;;;24.23;15.85;;;;;;;;;;5079775;28;20033;-66
2022/03/24 02:00:19;;;;;;;23.35;16.38;;;;;;;;;;5087465;28;20013;-64
2022/03/24 02:03:05;;;;;;;25.98;16.45;;;;;;;;;;5075750;28;20024;-64
2022/03/24 02:05:50;;;;;;;27.10;18.00;;;;;;;;;;5070786;28;20558;-63
2022/03/24 02:08:36;;;;;;;24.75;17.30;;;;;;;;;;5079598;28;20036;-65
2022/03/24 02:11:21;;;;;;;24.30;17.83;;;;;;;;;;5072203;28;20028;-63
2022/03/24 02:14:06;;;;;;;27.50;16.88;;;;;;;;;;5080379;28;20128;-66
2022/03/24 02:16:52;;;;;;;24.65;17.63;;;;;;;;;;5072237;28;20078;-66
2022/03/24 02:19:37;;;;;;;25.35;17.63;;;;;;;;;;5073332;28;20043;-65
2022/03/24 02:22:22;;;;;;;24.55;16.73;;;;;;;;;;5082191;28;20114;-67
2022/03/24 02:25:09;;;;;;;25.48;18.08;;;;;;;;;;5078369;28;20032;-65
2022/03/24 02:27:55;;;;;;;28.52;17.65;;;;;;;;;;5070180;28;20120;-59
2022/03/24 02:30:40;;;;;;;25.95;18.30;;;;;;;;;;5085309;28;20028;-61
2022/03/24 02:33:25;;;;;;;26.58;19.17;;;;;;;;;;5083104;28;20056;-61
2022/03/24 02:36:11;;;;;;;25.55;18.38;;;;;;;;;;5055706;28;20028;-60
2022/03/24 02:38:56;;;;;;;26.30;17.67;;;;;;;;;;5071577;28;20698;-60
2022/03/24 02:41:50;;;;;;;25.58;17.48;;;;;;;;;;5078919;28;20062;-59
2022/03/24 02:44:36;;;;;;;26.05;17.35;;;;;;;;;;5078928;28;20035;-59
2022/03/24 02:47:22;;;;;;;24.88;17.90;;;;;;;;;;5087820;28;20609;-60
2022/03/24 02:50:09;;;;;;;28.33;18.30;;;;;;;;;;5073168;28;20040;-53
2022/03/24 02:52:54;;;;;;;27.20;18.27;;;;;;;;;;5070723;28;20055;-53
2022/03/24 02:55:39;;;;;;;31.15;18.23;;;;;;;;;;5081994;28;20024;-53
2022/03/24 02:58:25;;;;;;;27.65;18.38;;;;;;;;;;5086372;28;20031;-53
2022/03/24 03:01:11;;;;;;;27.30;19.10;;;;;;;;;;5082140;28;20071;-52
2022/03/24 03:03:56;;;;;;;23.92;16.27;;;;;;;;;;5078451;28;20016;-56
2022/03/24 03:06:42;;;;;;;30.35;18.75;;;;;;;;;;5073788;28;20068;-57
2022/03/24 03:09:27;;;;;;;25.08;17.17;;;;;;;;;;5079495;28;20032;-53
2022/03/24 03:12:12;;;;;;;24.85;16.27;;;;;;;;;;5082405;28;20440;-54
2022/03/24 03:14:57;;;;;;;28.13;17.95;;;;;;;;;;5080242;28;20028;-53
2022/03/24 03:17:43;;;;;;;25.55;18.05;;;;;;;;;;5076468;28;20052;-52
2022/03/24 03:20:28;;;;;;;24.40;16.90;;;;;;;;;;5078257;28;20538;-50
2022/03/24 03:23:13;;;;;;;27.10;17.88;;;;;;;;;;5074068;28;20037;-60
2022/03/24 03:25:59;;;;;;;31.50;19.10;;;;;;;;;;5067286;28;20487;-67
2022/03/24 03:28:44;;;;;;;27.90;18.10;;;;;;;;;;5069384;28;20020;-64
2022/03/24 03:31:29;;;;;;;27.92;18.48;;;;;;;;;;5069354;28;20036;-68
2022/03/24 03:34:15;;;;;;;27.02;17.15;;;;;;;;;;5069957;28;20674;-63
2022/03/24 03:37:00;;;;;;;23.95;17.45;;;;;;;;;;5080628;28;20025;-63
2022/03/24 03:39:45;;;;;;;27.08;18.45;;;;;;;;;;5067558;28;20029;-67
2022/03/24 03:42:30;;;;;;;25.48;17.08;;;;;;;;;;5077365;28;20063;-67
2022/03/24 03:45:16;;;;;;;34.10;20.42;;;;;;;;;;5079380;28;20067;-52
2022/03/24 03:48:01;;;;;;;28.88;18.98;;;;;;;;;;5079731;28;20123;-55
2022/03/24 03:50:46;;;;;;;28.25;18.00;;;;;;;;;;5078276;28;20036;-53
2022/03/24 03:53:33;;;;;;;28.30;18.30;;;;;;;;;;5073284;28;20067;-48
2022/03/24 03:56:18;;;;;;;28.00;18.15;;;;;;;;;;5077402;28;20044;-50
2022/03/24 03:59:04;;;;;;;27.98;19.85;;;;;;;;;;5080716;28;20032;-56
2022/03/24 04:01:49;;;;;;;29.10;18.55;;;;;;;;;;5071594;28;20032;-53
2022/03/24 04:04:34;;;;;;;29.08;18.13;;;;;;;;;;5074991;28;20179;-59
2022/03/24 04:07:19;;;;;;;27.77;18.88;;;;;;;;;;5075456;28;20032;-57
2022/03/24 04:10:05;;;;;;;30.75;18.75;;;;;;;;;;5084971;28;20039;-57
2022/03/24 04:12:53;;;;;;;28.65;17.58;;;;;;;;;;5073635;28;20020;-55
2022/03/24 04:15:38;;;;;;;26.92;17.30;;;;;;;;;;5078885;28;20041;-55
2022/03/24 04:18:24;;;;;;;29.70;18.20;;;;;;;;;;5067538;28;20012;-59
2022/03/24 04:21:09;;;;;;;28.15;18.08;;;;;;;;;;5068976;28;20016;-55
2022/03/24 04:23:54;;;;;;;27.15;19.05;;;;;;;;;;5066844;28;20027;-56
2022/03/24 04:26:40;;;;;;;31.38;19.90;;;;;;;;;;5084698;28;20040;-54
2022/03/24 04:29:25;;;;;;;30.23;18.90;;;;;;;;;;5076523;28;20058;-56
2022/03/24 04:32:10;;;;;;;28.67;19.85;;;;;;;;;;5074005;28;20032;-56
2022/03/24 04:34:56;;;;;;;34.05;19.63;;;;;;;;;;5077072;28;20028;-54
2022/03/24 04:37:41;;;;;;;29.45;19.58;;;;;;;;;;5071242;28;20590;-63
2022/03/24 04:40:28;;;;;;;28.17;19.95;;;;;;;;;;5086936;28;20031;-60
2022/03/24 04:43:14;;;;;;;27.13;19.15;;;;;;;;;;5068827;28;20114;-60
2022/03/24 04:46:00;;;;;;;30.77;18.63;;;;;;;;;;5085625;28;20490;-60
2022/03/24 04:48:45;;;;;;;28.33;18.58;;;;;;;;;;5067950;28;20016;-60
2022/03/24 04:51:30;;;;;;;28.85;18.77;;;;;;;;;;5074843;28;20377;-59
2022/03/24 04:54:15;;;;;;;33.97;19.05;;;;;;;;;;5076326;28;20062;-62
2022/03/24 04:57:00;;;;;;;29.77;19.10;;;;;;;;;;5079656;28;20024;-59
2022/03/24 04:59:46;;;;;;;30.02;19.17;;;;;;;;;;5074526;28;20055;-56
2022/03/24 05:02:31;;;;;;;32.47;19.67;;;;;;;;;;5068952;28;20511;-57
2022/03/24 05:05:16;;;;;;;30.70;19.25;;;;;;;;;;5081271;28;20048;-59
2022/03/24 05:08:02;;;;;;;34.22;19.38;;;;;;;;;;5081075;28;20458;-57
2022/03/24 05:10:48;;;;;;;30.88;18.77;;;;;;;;;;5066697;28;20032;-58
2022/03/24 05:13:33;;;;;;;28.08;19.55;;;;;;;;;;5088632;28;20275;-47
2022/03/24 05:16:18;;;;;;;28.25;18.75;;;;;;;;;;5084539;28;20032;-61
2022/03/24 05:19:04;;;;;;;29.20;19.25;;;;;;;;;;5087198;28;20401;-62
2022/03/24 05:21:49;;;;;;;34.20;20.08;;;;;;;;;;5082027;28;20020;-59
2022/03/24 05:24:34;;;;;;;31.65;20.17;;;;;;;;;;5072785;28;20036;-61
2022/03/24 05:27:19;;;;;;;28.58;18.20;;;;;;;;;;5076760;28;20115;-60
2022/03/24 05:30:05;;;;;;;33.80;19.58;;;;;;;;;;5082002;28;20036;-60
2022/03/24 05:32:50;;;;;;;28.75;19.85;;;;;;;;;;5081674;28;20540;-66
2022/03/24 05:35:35;;;;;;;29.63;18.98;;;;;;;;;;5079531;28;20434;-58
2022/03/24 05:38:21;;;;;;;33.33;20.17;;;;;;;;;;5072911;28;20021;-57
2022/03/24 05:41:06;;;;;;;32.03;19.48;;;;;;;;;;5084485;28;20024;-58
2022/03/24 05:44:03;;;;;;;28.98;19.70;;;;;;;;;;5088213;28;20311;-59
2022/03/24 05:46:49;;;;;;;28.10;17.83;;;;;;;;;;5090452;28;20134;-55
2022/03/24 05:49:34;;;;;;;30.20;18.80;;;;;;;;;;5071968;28;20089;-56
2022/03/24 05:52:21;;;;;;;28.98;20.05;;;;;;;;;;5061077;28;20023;-52
2022/03/24 05:55:08;;;;;;;28.45;18.42;;;;;;;;;;5078215;28;20024;-51
2022/03/24 05:57:53;;;;;;;33.55;18.88;;;;;;;;;;5079207;28;20024;-51
2022/03/24 06:00:40;;;;;;;28.45;19.48;;;;;;;;;;5071756;28;20149;-49
2022/03/24 06:03:27;;;;;;;33.47;18.48;;;;;;;;;;5078977;28;20032;-52
2022/03/24 06:06:13;;;;;;;31.25;20.40;;;;;;;;;;5070506;28;20036;-50
2022/03/24 06:08:58;;;;;;;28.50;19.13;;;;;;;;;;5072012;28;20031;-65
2022/03/24 06:11:44;;;;;;;30.42;19.65;;;;;;;;;;5084595;28;20523;-59
2022/03/24 06:14:31;;;;;;;31.73;20.17;;;;;;;;;;5076548;28;20068;-58
2022/03/24 06:17:18;;;;;;;30.67;18.98;;;;;;;;;;5088438;28;20098;-58
2022/03/24 06:20:04;;;;;;;29.85;19.58;;;;;;;;;;5082870;28;20035;-61
2022/03/24 06:22:50;;;;;;;31.58;20.80;;;;;;;;;;5079378;28;20170;-59
2022/03/24 06:25:37;;;;;;;32.95;20.45;;;;;;;;;;5072641;28;20135;-60
2022/03/24 06:28:22;;;;;;;34.22;19.60;;;;;;;;;;5079478;28;20107;-65
2022/03/24 06:31:08;;;;;;;26.25;18.83;;;;;;;;;;5062231;28;20236;-53
2022/03/24 06:33:53;;;;;;;29.25;19.38;;;;;;;;;;5079964;28;20062;-53
2022/03/24 06:36:38;;;;;;;30.63;19.92;;;;;;;;;;5083350;28;20063;-53
2022/03/24 06:39:23;;;;;;;35.60;20.48;;;;;;;;;;5076696;28;20032;-57
2022/03/24 06:42:09;;;;;;;28.88;19.40;;;;;;;;;;5081743;28;20040;-54
2022/03/24 06:44:54;;;;;;;29.58;20.02;;;;;;;;;;5071738;28;20032;-55
2022/03/24 06:47:40;;;;;;;30.17;19.83;;;;;;;;;;5074054;28;20032;-54
2022/03/24 06:50:26;;;;;;;33.60;19.95;;;;;;;;;;5063149;28;20608;-53
2022/03/24 06:53:12;;;;;;;30.60;20.13;;;;;;;;;;5072391;28;20029;-54
2022/03/24 06:55:57;;;;;;;27.73;20.30;;;;;;;;;;5072292;28;20056;-57
2022/03/24 06:58:43;;;;;;;31.83;20.60;;;;;;;;;;5077380;28;20123;-50
2022/03/24 07:01:28;;;;;;;31.55;20.85;;;;;;;;;;5076223;28;20023;-53
2022/03/24 07:04:13;;;;;;;31.23;20.88;;;;;;;;;;5083762;28;20031;-57
2022/03/24 07:06:59;;;;;;;35.70;20.73;;;;;;;;;;5085170;28;20363;-55
2022/03/24 07:09:44;;;;;;;27.30;18.80;;;;;;;;;;5072216;28;20157;-55
2022/03/24 07:12:29;;;;;;;32.63;20.75;;;;;;;;;;5072825;28;20595;-54
2022/03/24 07:15:14;;;;;;;32.70;20.70;;;;;;;;;;5074624;28;20039;-51
2022/03/24 07:18:00;;;;;;;32.78;20.75;;;;;;;;;;5070247;28;20029;-55
2022/03/24 07:20:45;;;;;;;33.65;20.48;;;;;;;;;;5081203;28;20109;-51
2022/03/24 07:23:30;;;;;;;27.33;20.85;;;;;;;;;;5082626;28;20024;-66
2022/03/24 07:26:16;;;;;;;36.28;22.73;;;;;;;;;;5058244;28;20396;-55
2022/03/24 07:29:01;;;;;;;31.92;21.40;;;;;;;;;;5077071;28;20035;-54
2022/03/24 07:31:46;;;;;;;31.67;21.27;;;;;;;;;;5072215;28;20044;-56
2022/03/24 07:34:32;;;;;;;31.27;22.80;;;;;;;;;;5080025;28;20411;-50
2022/03/24 07:37:17;;;;;;;31.02;21.50;;;;;;;;;;5079555;28;20040;-53
2022/03/24 07:40:02;;;;;;;31.35;20.52;;;;;;;;;;5072675;28;20028;-55
2022/03/24 07:42:49;;;;;;;31.55;19.40;;;;;;;;;;5075768;28;20471;-52
2022/03/24 07:45:38;;;;;;;25.88;20.52;;;;;;;;;;5072712;28;20036;-65
2022/03/24 07:48:25;;;;;;;30.73;23.38;;;;;;;;;;5075121;28;20021;-62
2022/03/24 07:51:10;;;;;;;29.67;20.92;;;;;;;;;;5073616;28;20028;-67
2022/03/24 07:53:58;;;;;;;28.45;20.33;;;;;;;;;;5081950;28;20028;-74
2022/03/24 07:56:43;;;;;;;31.45;21.30;;;;;;;;;;5071773;28;20029;-79
2022/03/24 07:59:29;;;;;;;33.95;22.40;;;;;;;;;;5081369;28;20518;-66
2022/03/24 08:02:16;;;;;;;34.05;20.48;;;;;;;;;;5077677;28;20207;-64
2022/03/24 08:05:01;;;;;;;26.05;20.10;;;;;;;;;;5083396;28;20016;-59
2022/03/24 08:07:46;;;;;;;29.48;20.35;;;;;;;;;;5074229;28;20396;-55
2022/03/24 08:10:32;;;;;;;28.17;21.40;;;;;;;;;;5069510;28;20075;-52
2022/03/24 08:13:18;;;;;;;37.10;23.05;;;;;;;;;;5075286;28;20039;-59
2022/03/24 08:16:04;;;;;;;37.38;22.58;;;;;;;;;;5074645;28;20510;-55
2022/03/24 08:18:50;;;;;;;32.90;22.50;;;;;;;;;;5075748;28;20034;-60
2022/03/24 08:21:36;;;;;;;31.73;20.63;;;;;;;;;;5060815;28;20060;-64
2022/03/24 08:24:21;;;;;;;33.20;23.00;;;;;;;;;;5064100;28;20035;-67
2022/03/24 08:27:06;;;;;;;33.92;21.58;;;;;;;;;;5070925;28;20495;-65
2022/03/24 08:29:51;;;;;;;32.95;23.88;;;;;;;;;;5072541;28;20032;-66
2022/03/24 08:32:37;;;;;;;34.80;23.25;;;;;;;;;;5059301;28;20511;-65
2022/03/24 08:35:22;;;;;;;36.58;24.65;;;;;;;;;;5077017;28;20327;-63
2022/03/24 08:38:08;;;;;;;35.13;23.13;;;;;;;;;;5085559;28;20103;-51
2022/03/24 08:40:53;;;;;;;39.33;24.20;;;;;;;;;;5079444;28;20450;-68
2022/03/24 08:43:38;;;;;;;33.65;24.05;;;;;;;;;;5075725;28;20036;-68
2022/03/24 08:46:25;;;;;;;36.40;23.88;;;;;;;;;;5078134;28;20032;-67
2022/03/24 08:49:11;;;;;;;30.25;23.77;;;;;;;;;;5082295;28;20081;-68
2022/03/24 08:51:57;;;;;;;29.88;22.50;;;;;;;;;;5080834;28;20415;-71
2022/03/24 08:54:42;;;;;;;38.40;23.38;;;;;;;;;;5078248;28;20046;-60
2022/03/24 08:57:27;;;;;;;30.85;23.40;;;;;;;;;;5083969;28;20035;-49
2022/03/24 09:00:15;;;;;;;33.40;23.70;;;;;;;;;;5073183;28;20043;-57
2022/03/24 09:03:01;;;;;;;38.72;25.48;;;;;;;;;;5073828;28;20031;-55
2022/03/24 09:05:46;;;;;;;31.77;23.10;;;;;;;;;;5077438;28;20041;-52
2022/03/24 09:08:31;;;;;;;32.63;24.98;;;;;;;;;;5073791;28;20101;-54
2022/03/24 09:11:18;;;;;;;33.40;25.30;;;;;;;;;;5079710;28;20040;-53
2022/03/24 09:14:03;;;;;;;41.15;24.25;;;;;;;;;;5077424;28;20391;-56
2022/03/24 09:16:49;;;;;;;35.72;25.45;;;;;;;;;;5076918;28;20395;-68
2022/03/24 09:19:34;;;;;;;32.45;24.60;;;;;;;;;;5079509;28;20463;-66
2022/03/24 09:22:20;;;;;;;31.70;24.50;;;;;;;;;;5081226;28;20028;-65
2022/03/24 09:25:06;;;;;;;37.67;24.17;;;;;;;;;;5081804;28;20036;-68
2022/03/24 09:27:51;;;;;;;39.80;24.45;;;;;;;;;;5077218;28;20033;-68
2022/03/24 09:30:37;;;;;;;30.67;23.65;;;;;;;;;;5079767;28;20052;-66
2022/03/24 09:33:22;;;;;;;34.05;24.90;;;;;;;;;;5081680;28;20035;-61
2022/03/24 09:36:07;;;;;;;40.28;25.08;;;;;;;;;;5072077;28;20027;-61
2022/03/24 09:38:53;;;;;;;32.40;23.95;;;;;;;;;;5073750;28;20032;-62
2022/03/24 09:41:40;;;;;;;32.67;24.05;;;;;;;;;;5078612;28;20024;-62
2022/03/24 09:44:26;;;;;;;30.83;23.80;;;;;;;;;;5075517;28;20654;-61
2022/03/24 09:47:12;;;;;;;28.77;22.23;;;;;;;;;;5077701;28;20038;-60
2022/03/24 09:49:57;;;;;;;32.22;24.35;;;;;;;;;;5076555;28;20028;-56
2022/03/24 09:52:43;;;;;;;27.92;23.48;;;;;;;;;;5064774;28;20595;-60
2022/03/24 09:55:32;;;;;;;31.85;23.38;;;;;;;;;;5084768;28;20134;-63
2022/03/24 09:58:17;;;;;;;;;;;;;;;;;;5071963;28;20036;-61
2022/03/24 10:01:03;;;;;;;25.15;20.08;;;;;;;;;;5083692;28;19911;-61
2022/03/24 10:04:23;;;;;;;28.13;21.65;;;;;;;;;;5075703;28;20119;-60
2022/03/24 10:07:09;;;;;;;26.17;20.85;;;;;;;;;;5000484;28;20120;-61
2022/03/24 10:09:59;;;;;;;24.70;19.27;;;;;;;;;;5080340;28;20036;-65
2022/03/24 10:12:44;;;;;;;25.40;20.30;;;;;;;;;;5077601;28;20380;-59
2022/03/24 10:15:30;;;;;;;22.92;19.60;;;;;;;;;;5074732;28;20048;-59
2022/03/24 10:18:15;;;;;;;21.33;19.05;;;;;;;;;;5074071;28;20047;-60
2022/03/24 10:21:03;;;;;;;24.42;20.55;;;;;;;;;;5076162;28;20571;-58
2022/03/24 10:23:49;;;;;;;24.95;19.50;;;;;;;;;;5073859;28;20032;-56
2022/03/24 10:26:53;;;;;;;26.05;19.33;;;;;;;;;;5072877;28;20640;-65
2022/03/24 10:29:38;;;;;;;23.20;18.92;;;;;;;;;;5077965;28;20059;-66
2022/03/24 10:32:31;;;;;;;22.83;18.88;;;;;;;;;;5077945;28;20019;-68
2022/03/24 10:35:16;;;;;;;24.77;18.40;;;;;;;;;;5075481;28;20475;-65
2022/03/24 10:38:01;;;;;;;22.58;19.67;;;;;;;;;;5075934;28;20047;-65
2022/03/24 10:40:47;;;;;;;21.92;19.63;;;;;;;;;;5088043;28;20032;-65
2022/03/24 10:43:34;;;;;;;24.75;19.95;;;;;;;;;;5079061;28;20016;-67
2022/03/24 10:46:22;;;;;;;28.73;20.17;;;;;;;;;;5095989;28;20044;-61
2022/03/24 10:49:15;;;;;;;21.75;19.55;;;;;;;;;;5078012;28;20040;-51
2022/03/24 10:52:00;;;;;;;22.63;19.67;;;;;;;;;;5074158;28;20051;-52
2022/03/24 10:54:48;;;;;;;22.98;20.30;;;;;;;;;;5080436;28;20050;-53
2022/03/24 10:57:34;;;;;;;31.75;20.45;;;;;;;;;;5079651;28;20024;-56
2022/03/24 11:00:20;;;;;;;23.20;18.58;;;;;;;;;;5073954;28;20036;-54
2022/03/24 11:03:06;;;;;;;23.40;20.38;;;;;;;;;;5073704;28;20183;-56
2022/03/24 11:05:51;;;;;;;24.42;20.15;;;;;;;;;;5083946;28;21059;-54
2022/03/24 11:08:37;;;;;;;24.23;21.02;;;;;;;;;;5087183;28;20455;-59
2022/03/24 11:11:22;;;;;;;26.17;18.90;;;;;;;;;;5079727;28;20036;-60
2022/03/24 11:14:08;;;;;;;26.10;20.23;;;;;;;;;;5060477;28;20107;-59
2022/03/24 11:16:53;;;;;;;25.55;19.83;;;;;;;;;;5079046;28;20024;-60
2022/03/24 11:19:39;;;;;;;30.00;21.05;;;;;;;;;;5081824;28;20047;-61
2022/03/24 11:22:33;;;;;;;23.15;19.63;;;;;;;;;;5075275;28;20032;-72
2022/03/24 11:25:19;;;;;;;28.63;21.52;;;;;;;;;;5082715;28;20036;-57
2022/03/24 11:28:11;;;;;;;22.40;19.15;;;;;;;;;;5074537;28;20032;-58
2022/03/24 11:30:56;;;;;;;27.83;21.23;;;;;;;;;;5074425;28;20065;-58
2022/03/24 11:33:41;;;;;;;23.15;19.65;;;;;;;;;;5076721;28;20497;-57
2022/03/24 11:36:27;;;;;;;25.35;19.48;;;;;;;;;;5082050;28;20031;-57
2022/03/24 11:39:13;;;;;;;21.70;18.20;;;;;;;;;;5080918;28;20048;-56
2022/03/24 11:41:59;;;;;;;19.73;15.43;;;;;;;;;;5071955;28;20469;-61
2022/03/24 11:44:48;;;;;;;19.83;15.88;;;;;;;;;;5077853;28;20032;-55
2022/03/24 11:47:46;;;;;;;22.15;17.02;;;;;;;;;;5070052;28;20028;-54
2022/03/24 11:50:35;;;;;;;22.88;18.15;;;;;;;;;;5073419;28;20483;-57
2022/03/24 11:53:26;;;;;;;20.70;17.20;;;;;;;;;;5073425;28;20040;-56
2022/03/24 11:56:13;;;;;;;25.67;18.20;;;;;;;;;;5069398;28;20496;-58
2022/03/24 11:59:01;;;;;;;32.28;20.77;;;;;;;;;;5078711;28;20032;-78
2022/03/24 12:01:47;;;;;;;26.20;18.47;;;;;;;;;;5069850;28;20045;-57
2022/03/24 12:04:42;;;;;;;20.92;18.15;;;;;;;;;;5073123;28;20067;-60
2022/03/24 12:07:27;;;;;;;18.15;16.15;;;;;;;;;;5076342;28;20039;-61
2022/03/24 12:10:14;;;;;;;27.83;18.33;;;;;;;;;;5068558;28;20409;-58
2022/03/24 12:13:00;;;;;;;20.42;15.90;;;;;;;;;;5077895;28;20514;-59
2022/03/24 12:16:05;;;;;;;22.58;15.82;;;;;;;;;;5075639;28;20132;-60
2022/03/24 12:18:52;;;;;;;22.83;17.15;;;;;;;;;;5074029;28;20189;-66
2022/03/24 12:21:37;;;;;;;22.92;17.10;;;;;;;;;;5072596;28;20032;-70
2022/03/24 12:24:22;;;;;;;21.00;16.38;;;;;;;;;;5079545;28;20111;-67
2022/03/24 12:27:08;;;;;;;18.75;15.10;;;;;;;;;;5072715;28;20028;-69
2022/03/24 12:30:13;;;;;;;20.48;17.35;;;;;;;;;;5072018;28;20190;-66
2022/03/24 12:33:01;;;;;;;20.80;16.02;;;;;;;;;;5082273;28;20134;-69
2022/03/24 12:35:48;;;;;;;20.88;15.75;;;;;;;;;;5071833;28;20728;-77
2022/03/24 12:38:34;;;;;;;21.30;16.52;;;;;;;;;;5074924;28;20028;-57
2022/03/24 12:41:21;;;;;;;20.95;16.45;;;;;;;;;;5089968;28;20106;-56
2022/03/24 12:44:07;;;;;;;20.80;14.98;;;;;;;;;;5080186;28;20599;-57
2022/03/24 12:46:58;;;;;;;23.58;16.23;;;;;;;;;;5070980;28;20119;-55
2022/03/24 12:49:45;;;;;;;19.45;14.93;;;;;;;;;;5075927;28;20028;-54
2022/03/24 12:52:49;;;;;;;18.80;15.80;;;;;;;;;;5070092;28;20493;-57
2022/03/24 12:55:35;;;;;;;20.75;16.55;;;;;;;;;;5074795;28;20036;-69
2022/03/24 12:58:20;;;;;;;22.45;16.17;;;;;;;;;;5076955;28;20390;-59
2022/03/24 13:01:06;;;;;;;20.90;15.35;;;;;;;;;;5078076;28;20110;-60
2022/03/24 13:04:10;;;;;;;17.45;14.40;;;;;;;;;;5072215;28;20047;-62
2022/03/24 13:06:55;;;;;;;20.02;14.93;;;;;;;;;;5075888;28;20471;-60
2022/03/24 13:09:40;;;;;;;21.58;15.35;;;;;;;;;;5067037;28;20043;-59
2022/03/24 13:12:29;;;;;;;17.92;14.20;;;;;;;;;;5081776;28;20027;-63
2022/03/24 13:15:33;;;;;;;19.23;14.57;;;;;;;;;;5070752;28;20054;-61
2022/03/24 13:18:18;;;;;;;21.27;15.77;;;;;;;;;;5074394;28;20069;-66
2022/03/24 13:21:04;;;;;;;18.27;14.27;;;;;;;;;;5071472;28;20108;-63
2022/03/24 13:23:53;;;;;;;18.88;15.85;;;;;;;;;;5070577;28;20050;-63
2022/03/24 13:26:38;;;;;;;17.30;15.45;;;;;;;;;;5068922;28;20383;-63
2022/03/24 13:29:34;;;;;;;19.25;14.57;;;;;;;;;;5073667;28;20032;-61
2022/03/24 13:32:23;;;;;;;18.00;14.32;;;;;;;;;;5077827;28;20077;-56
2022/03/24 13:35:10;;;;;;;16.40;14.45;;;;;;;;;;5079622;28;20119;-60
2022/03/24 13:37:57;;;;;;;19.55;15.40;;;;;;;;;;5076502;28;20036;-61
2022/03/24 13:40:49;;;;;;;17.83;14.82;;;;;;;;;;5074225;28;20042;-59
2022/03/24 13:43:35;;;;;;;18.05;14.30;;;;;;;;;;5073491;28;20027;-59
2022/03/24 13:46:20;;;;;;;16.70;13.43;;;;;;;;;;5077090;28;20041;-59
2022/03/24 13:49:06;;;;;;;18.27;14.20;;;;;;;;;;5071395;28;20111;-70
2022/03/24 13:51:51;;;;;;;20.13;15.32;;;;;;;;;;5084257;28;20457;-62
2022/03/24 13:54:36;;;;;;;21.17;15.38;;;;;;;;;;5071945;28;20039;-61
2022/03/24 13:57:23;;;;;;;18.92;15.88;;;;;;;;;;5077353;28;20047;-62
2022/03/24 14:00:08;;;;;;;19.20;14.52;;;;;;;;;;5085867;28;20031;-61
2022/03/24 14:02:57;;;;;;;18.20;14.82;;;;;;;;;;5084485;28;20032;-63
2022/03/24 14:06:06;;;;;;;18.58;14.38;;;;;;;;;;5074535;28;20120;-61
2022/03/24 14:08:52;;;;;;;19.15;15.05;;;;;;;;;;5076991;28;20035;-65
2022/03/24 14:11:37;;;;;;;17.15;13.75;;;;;;;;;;5064804;28;20028;-55
2022/03/24 14:14:24;;;;;;;18.13;14.02;;;;;;;;;;5080701;28;20404;-53
2022/03/24 14:17:11;;;;;;;18.40;14.35;;;;;;;;;;5089820;28;20024;-57
2022/03/24 14:19:56;;;;;;;19.23;13.70;;;;;;;;;;5080485;28;20075;-56
2022/03/24 14:22:45;;;;;;;18.15;14.07;;;;;;;;;;5078492;28;20059;-58
2022/03/24 14:25:30;;;;;;;20.77;14.27;;;;;;;;;;5077008;28;20032;-57
2022/03/24 14:28:35;;;;;;;19.30;14.20;;;;;;;;;;5073628;28;20032;-58
2022/03/24 14:31:21;;;;;;;18.58;13.30;;;;;;;;;;5074594;28;20044;-58
2022/03/24 14:34:13;;;;;;;18.35;14.10;;;;;;;;;;5076702;28;20039;-61
2022/03/24 14:37:07;;;;;;;17.13;13.68;;;;;;;;;;5075813;28;20063;-58
2022/03/24 14:39:53;;;;;;;17.05;12.73;;;;;;;;;;5081431;28;20028;-61
2022/03/24 14:42:39;;;;;;;20.38;15.27;;;;;;;;;;5072067;28;20443;-60
2022/03/24 14:45:24;;;;;;;15.63;13.43;;;;;;;;;;5071659;28;20115;-58
2022/03/24 14:48:10;;;;;;;18.33;13.48;;;;;;;;;;5086194;28;20053;-58
2022/03/24 14:50:55;;;;;;;16.92;13.57;;;;;;;;;;5091714;28;20020;-53
2022/03/24 14:53:40;;;;;;;16.77;12.63;;;;;;;;;;5076615;28;20035;-55
2022/03/24 14:56:26;;;;;;;17.33;13.70;;;;;;;;;;5070952;28;20028;-53
2022/03/24 14:59:11;;;;;;;20.15;13.90;;;;;;;;;;5069740;28;20486;-57
2022/03/24 15:01:56;;;;;;;18.40;12.45;;;;;;;;;;5073891;28;20158;-61
2022/03/24 15:04:42;;;;;;;17.08;12.27;;;;;;;;;;5074914;28;20070;-62
2022/03/24 15:07:27;;;;;;;17.67;13.43;;;;;;;;;;5069673;28;20040;-61
2022/03/24 15:10:13;;;;;;;20.05;13.07;;;;;;;;;;5073194;28;20255;-59
2022/03/24 15:12:58;;;;;;;17.13;12.90;;;;;;;;;;5072869;28;20093;-58
2022/03/24 15:18:47;;;;;;;15.57;11.88;;;;;;;;;;5075473;28;20036;-59
2022/03/24 15:21:33;;;;;;;15.13;12.07;;;;;;;;;;5083103;28;20020;-60
2022/03/24 15:24:18;;;;;;;17.67;12.98;;;;;;;;;;5068189;28;20135;-63
2022/03/24 15:27:03;;;;;;;14.95;11.63;;;;;;;;;;5080808;28;20046;-62
2022/03/24 15:29:49;;;;;;;16.02;12.45;;;;;;;;;;5072992;28;20493;-61
2022/03/24 15:32:34;;;;;;;16.85;12.32;;;;;;;;;;5073373;28;20032;-62
2022/03/24 15:35:20;;;;;;;16.73;12.18;;;;;;;;;;5076032;28;20475;-60
2022/03/24 15:38:06;;;;;;;17.88;11.93;;;;;;;;;;5080256;28;20031;-60
2022/03/24 15:40:51;;;;;;;14.57;11.38;;;;;;;;;;5091110;28;20149;-59
2022/03/24 15:43:36;;;;;;;17.08;10.95;;;;;;;;;;5078872;28;20502;-70
2022/03/24 15:46:22;;;;;;;15.05;11.73;;;;;;;;;;5076436;28;20036;-69
2022/03/24 15:49:07;;;;;;;13.93;11.23;;;;;;;;;;5073221;28;20024;-68
2022/03/24 15:51:52;;;;;;;16.23;12.10;;;;;;;;;;5088307;28;20028;-68
2022/03/24 15:54:39;;;;;;;21.70;11.63;;;;;;;;;;5095248;28;20027;-68
2022/03/24 15:57:24;;;;;;;17.52;12.20;;;;;;;;;;5080309;28;20475;-58
2022/03/24 16:00:10;;;;;;;17.30;12.25;;;;;;;;;;5092593;28;20058;-57
2022/03/24 16:02:55;;;;;;;17.55;12.85;;;;;;;;;;5082480;28;20036;-68
2022/03/24 16:05:42;;;;;;;14.00;11.45;;;;;;;;;;5088404;28;20032;-70
2022/03/24 16:08:27;;;;;;;16.52;11.77;;;;;;;;;;5073535;28;20028;-69
2022/03/24 16:11:12;;;;;;;15.52;12.20;;;;;;;;;;5069174;28;20032;-68
2022/03/24 16:13:58;;;;;;;17.30;12.75;;;;;;;;;;5079058;28;20328;-67